PWSweather.com
Personal Weather Stations
Station Observations
KCTHAMDEN
Dunbar Hill, Hamden, CT 06514

Dunbar HillHamden, CT 06514

Lat: 41.365437, Lon: -72.956532

Elevation: 200

Station Type: Davis Vantage Pro2+

www.hamdenweather.com

High Low Average
Temperature 80.0°F26.7°C 65.4°F18.6°C 72.4°F22.4°C
Dew Point 76.7°F24.8°C 64.5°F18.1°C 71.1°F21.7°C
Winds 3.8 mph 6.1 kmh Calm Calm 1.0 mph S1.6 kmh S
Wind Gusts 10.0 mph16.1 kmh -- 2.0 mph3.2 kmh
Humidity 98% 87% 96%
Pressure 29.92 in1013.2 mb 29.72 in1006.4 mb -
Precipitation 0.51 in13.0 mm - -
Hour Temp Dew Point Humidity Winds Wind Gusts Pressure Precip Precip Rate Daily Precip Total
12:00 AM 72.0°F22.2°C 70.5°F21.4°C 95% Calm Calm -- 29.94 in1013.9 mb - 0.00 in0.0 mm 0.00 in0.0 mm
12:15 AM 71.9°F22.2°C 70.7°F21.5°C 96% Calm Calm -- 29.94 in1013.9 mb - 0.00 in0.0 mm 0.00 in0.0 mm
12:30 AM 71.8°F22.1°C 70.6°F21.4°C 96% 0.2 mph SE0.3 kmh SE 1.0 mph1.6 kmh 29.94 in1013.9 mb - 0.00 in0.0 mm 0.00 in0.0 mm
12:45 AM 71.9°F22.2°C 70.7°F21.5°C 96% Calm Calm -- 29.93 in1013.5 mb - 0.00 in0.0 mm 0.00 in0.0 mm
01:00 AM 71.9°F22.2°C 70.7°F21.5°C 96% Calm Calm -- 29.92 in1013.2 mb - 0.00 in0.0 mm 0.00 in0.0 mm
01:15 AM 71.9°F22.2°C 70.7°F21.5°C 96% 0.6 mph SW1.0 kmh SW 2.0 mph3.2 kmh 29.91 in1012.9 mb - 0.00 in0.0 mm 0.00 in0.0 mm
01:30 AM 71.8°F22.1°C 70.6°F21.4°C 96% Calm Calm -- 29.91 in1012.9 mb - 0.00 in0.0 mm 0.00 in0.0 mm
01:45 AM 71.7°F22.1°C 70.5°F21.4°C 96% Calm Calm -- 29.90 in1012.5 mb - 0.00 in0.0 mm 0.00 in0.0 mm
02:00 AM 71.7°F22.1°C 70.5°F21.4°C 96% Calm Calm -- 29.90 in1012.5 mb - 0.00 in0.0 mm 0.00 in0.0 mm
02:15 AM 71.6°F22.0°C 70.4°F21.3°C 96% Calm Calm -- 29.89 in1012.2 mb - 0.00 in0.0 mm 0.00 in0.0 mm
02:30 AM 71.5°F21.9°C 70.3°F21.3°C 96% Calm Calm -- 29.89 in1012.2 mb - 0.00 in0.0 mm 0.00 in0.0 mm
02:45 AM 71.6°F22.0°C 70.4°F21.3°C 96% Calm Calm -- 29.88 in1011.9 mb - 0.02 in0.5 mm 0.02 in0.5 mm
03:00 AM 71.6°F22.0°C 70.4°F21.3°C 96% Calm Calm -- 29.86 in1011.2 mb - 0.01 in0.3 mm 0.03 in0.8 mm
03:15 AM 71.7°F22.1°C 70.8°F21.6°C 97% Calm Calm 1.0 mph1.6 kmh 29.86 in1011.2 mb - 0.00 in0.0 mm 0.03 in0.8 mm
03:30 AM 71.8°F22.1°C 70.9°F21.6°C 97% Calm Calm -- 29.85 in1010.8 mb - 0.00 in0.0 mm 0.03 in0.8 mm
03:45 AM 72.0°F22.2°C 71.1°F21.7°C 97% Calm Calm 1.0 mph1.6 kmh 29.84 in1010.5 mb - 0.00 in0.0 mm 0.03 in0.8 mm
04:00 AM 72.2°F22.3°C 71.3°F21.8°C 97% 0.3 mph SSE0.5 kmh SSE 2.0 mph3.2 kmh 29.83 in1010.2 mb - 0.00 in0.0 mm 0.03 in0.8 mm
04:15 AM 72.6°F22.6°C 71.7°F22.1°C 97% 0.4 mph SE0.6 kmh SE -- 29.82 in1009.8 mb - 0.01 in0.3 mm 0.04 in1.0 mm
04:30 AM 73.0°F22.8°C 72.1°F22.3°C 97% 0.1 mph SE0.2 kmh SE 6.0 mph9.7 kmh 29.82 in1009.8 mb - 0.00 in0.0 mm 0.04 in1.0 mm
04:45 AM 73.3°F22.9°C 72.4°F22.4°C 97% 1.9 mph SE3.1 kmh SE 7.0 mph11.3 kmh 29.82 in1009.8 mb - 0.00 in0.0 mm 0.04 in1.0 mm
05:00 AM 73.4°F23.0°C 72.5°F22.5°C 97% 0.5 mph SW0.8 kmh SW 1.0 mph1.6 kmh 29.82 in1009.8 mb - 0.00 in0.0 mm 0.04 in1.0 mm
05:15 AM 73.6°F23.1°C 72.7°F22.6°C 97% 2.3 mph ESE3.7 kmh ESE 3.0 mph4.8 kmh 29.82 in1009.8 mb - 0.00 in0.0 mm 0.04 in1.0 mm
05:30 AM 73.7°F23.2°C 72.8°F22.7°C 97% 1.0 mph SE1.6 kmh SE 2.0 mph3.2 kmh 29.81 in1009.5 mb - 0.00 in0.0 mm 0.04 in1.0 mm
05:45 AM 73.7°F23.2°C 72.8°F22.7°C 97% 0.6 mph E1.0 kmh E 2.0 mph3.2 kmh 29.80 in1009.1 mb - 0.00 in0.0 mm 0.04 in1.0 mm
06:00 AM 73.7°F23.2°C 72.8°F22.7°C 97% 0.4 mph SSE0.6 kmh SSE 3.0 mph4.8 kmh 29.79 in1008.8 mb - 0.00 in0.0 mm 0.04 in1.0 mm
06:15 AM 73.7°F23.2°C 72.8°F22.7°C 97% 1.2 mph S1.9 kmh S 1.0 mph1.6 kmh 29.79 in1008.8 mb - 0.00 in0.0 mm 0.04 in1.0 mm
06:30 AM 73.8°F23.2°C 72.9°F22.7°C 97% 1.4 mph E2.3 kmh E 3.0 mph4.8 kmh 29.79 in1008.8 mb - 0.00 in0.0 mm 0.04 in1.0 mm
06:45 AM 73.8°F23.2°C 72.9°F22.7°C 97% 1.4 mph SW2.3 kmh SW 7.0 mph11.3 kmh 29.79 in1008.8 mb - 0.00 in0.0 mm 0.04 in1.0 mm
07:00 AM 73.9°F23.3°C 73.0°F22.8°C 97% 0.4 mph SE0.6 kmh SE 2.0 mph3.2 kmh 29.78 in1008.5 mb - 0.00 in0.0 mm 0.04 in1.0 mm
07:15 AM 74.0°F23.3°C 73.1°F22.8°C 97% 0.1 mph SSW0.2 kmh SSW 5.0 mph8.0 kmh 29.78 in1008.5 mb - 0.00 in0.0 mm 0.04 in1.0 mm
07:30 AM 74.1°F23.4°C 73.2°F22.9°C 97% 1.9 mph SSW3.1 kmh SSW 7.0 mph11.3 kmh 29.77 in1008.1 mb - 0.00 in0.0 mm 0.04 in1.0 mm
07:45 AM 74.2°F23.4°C 73.3°F22.9°C 97% 0.9 mph SE1.4 kmh SE 4.0 mph6.4 kmh 29.77 in1008.1 mb - 0.00 in0.0 mm 0.04 in1.0 mm
08:00 AM 74.2°F23.4°C 73.3°F22.9°C 97% 2.1 mph SW3.4 kmh SW 3.0 mph4.8 kmh 29.77 in1008.1 mb - 0.01 in0.3 mm 0.05 in1.3 mm
08:15 AM 74.2°F23.4°C 73.3°F22.9°C 97% 1.1 mph SE1.8 kmh SE 9.0 mph14.5 kmh 29.76 in1007.8 mb - 0.01 in0.3 mm 0.06 in1.5 mm
08:30 AM 74.2°F23.4°C 73.3°F22.9°C 97% 1.0 mph E1.6 kmh E 2.0 mph3.2 kmh 29.76 in1007.8 mb - 0.00 in0.0 mm 0.06 in1.5 mm
08:45 AM 74.3°F23.5°C 73.4°F23.0°C 97% Calm Calm -- 29.75 in1007.5 mb - 0.01 in0.3 mm 0.07 in1.8 mm
09:00 AM 74.4°F23.6°C 73.5°F23.1°C 97% 0.2 mph WSW0.3 kmh WSW 1.0 mph1.6 kmh 29.75 in1007.5 mb - 0.00 in0.0 mm 0.07 in1.8 mm
09:15 AM 74.5°F23.6°C 73.6°F23.1°C 97% 2.3 mph S3.7 kmh S 8.0 mph12.9 kmh 29.75 in1007.5 mb - 0.00 in0.0 mm 0.07 in1.8 mm
09:30 AM 74.7°F23.7°C 73.8°F23.2°C 97% 0.7 mph E1.1 kmh E 2.0 mph3.2 kmh 29.74 in1007.1 mb - 0.00 in0.0 mm 0.07 in1.8 mm
09:45 AM 75.0°F23.9°C 74.1°F23.4°C 97% 2.3 mph S3.7 kmh S 3.0 mph4.8 kmh 29.75 in1007.5 mb - 0.00 in0.0 mm 0.07 in1.8 mm
10:00 AM 75.2°F24.0°C 74.3°F23.5°C 97% 3.2 mph ENE5.1 kmh ENE 10.0 mph16.1 kmh 29.75 in1007.5 mb - 0.00 in0.0 mm 0.07 in1.8 mm
10:15 AM 75.8°F24.3°C 75.2°F24.0°C 98% 0.4 mph E0.6 kmh E 1.0 mph1.6 kmh 29.74 in1007.1 mb - 0.00 in0.0 mm 0.07 in1.8 mm
10:30 AM 76.3°F24.6°C 75.4°F24.1°C 97% 2.1 mph ESE3.4 kmh ESE 2.0 mph3.2 kmh 29.74 in1007.1 mb - 0.00 in0.0 mm 0.07 in1.8 mm
10:45 AM 76.4°F24.7°C 75.5°F24.2°C 97% 0.3 mph SE0.5 kmh SE -- 29.73 in1006.8 mb - 0.00 in0.0 mm 0.07 in1.8 mm
11:00 AM 76.4°F24.7°C 75.2°F24.0°C 96% Calm Calm -- 29.73 in1006.8 mb - 0.00 in0.0 mm 0.07 in1.8 mm
11:15 AM 76.7°F24.8°C 75.5°F24.2°C 96% 1.1 mph NE1.8 kmh NE 3.0 mph4.8 kmh 29.73 in1006.8 mb - 0.00 in0.0 mm 0.07 in1.8 mm
11:30 AM 76.9°F24.9°C 75.7°F24.3°C 96% 0.6 mph SE1.0 kmh SE 1.0 mph1.6 kmh 29.73 in1006.8 mb - 0.00 in0.0 mm 0.07 in1.8 mm
11:45 AM 77.7°F25.4°C 76.1°F24.5°C 95% 0.9 mph SSE1.4 kmh SSE 4.0 mph6.4 kmh 29.72 in1006.4 mb - 0.00 in0.0 mm 0.07 in1.8 mm
12:00 PM 79.2°F26.2°C 76.7°F24.8°C 92% 3.8 mph S6.1 kmh S 6.0 mph9.7 kmh 29.72 in1006.4 mb - 0.00 in0.0 mm 0.07 in1.8 mm
12:15 PM 80.0°F26.7°C 76.1°F24.5°C 88% 2.2 mph SE3.5 kmh SE 7.0 mph11.3 kmh 29.72 in1006.4 mb - 0.00 in0.0 mm 0.07 in1.8 mm
12:30 PM 78.8°F26.0°C 74.6°F23.7°C 87% 2.0 mph SW3.2 kmh SW 4.0 mph6.4 kmh 29.73 in1006.8 mb - 0.02 in0.5 mm 0.09 in2.3 mm
12:45 PM 77.4°F25.2°C 74.2°F23.4°C 90% 1.3 mph NNE2.1 kmh NNE 3.0 mph4.8 kmh 29.73 in1006.8 mb - 0.04 in1.0 mm 0.13 in3.3 mm
01:00 PM 76.4°F24.7°C 73.6°F23.1°C 91% 0.8 mph W1.3 kmh W 3.0 mph4.8 kmh 29.73 in1006.8 mb - 0.01 in0.3 mm 0.14 in3.6 mm
01:15 PM 75.8°F24.3°C 73.3°F22.9°C 92% 1.9 mph SW3.1 kmh SW 6.0 mph9.7 kmh 29.73 in1006.8 mb - 0.00 in0.0 mm 0.14 in3.6 mm
01:30 PM 75.5°F24.2°C 73.3°F22.9°C 93% Calm Calm -- 29.73 in1006.8 mb - 0.00 in0.0 mm 0.14 in3.6 mm
01:45 PM 75.0°F23.9°C 72.9°F22.7°C 93% 0.9 mph NNW1.4 kmh NNW 5.0 mph8.0 kmh 29.74 in1007.1 mb - 0.00 in0.0 mm 0.14 in3.6 mm
02:00 PM 74.6°F23.7°C 72.4°F22.4°C 93% 0.2 mph WSW0.3 kmh WSW 1.0 mph1.6 kmh 29.74 in1007.1 mb - 0.01 in0.3 mm 0.15 in3.8 mm
02:15 PM 74.1°F23.4°C 71.9°F22.2°C 93% 1.9 mph SE3.1 kmh SE 2.0 mph3.2 kmh 29.74 in1007.1 mb - 0.00 in0.0 mm 0.15 in3.8 mm
02:30 PM 73.5°F23.1°C 71.4°F21.9°C 93% 0.3 mph E0.5 kmh E 1.0 mph1.6 kmh 29.75 in1007.5 mb - 0.01 in0.3 mm 0.16 in4.1 mm
02:45 PM 73.0°F22.8°C 70.9°F21.6°C 93% Calm Calm -- 29.75 in1007.5 mb - 0.01 in0.3 mm 0.17 in4.3 mm
03:00 PM 72.8°F22.7°C 71.0°F21.7°C 94% Calm Calm -- 29.75 in1007.5 mb - 0.01 in0.3 mm 0.18 in4.6 mm
03:15 PM 72.5°F22.5°C 70.7°F21.5°C 94% 1.8 mph W2.9 kmh W 4.0 mph6.4 kmh 29.74 in1007.1 mb - 0.02 in0.5 mm 0.20 in5.1 mm
03:30 PM 71.5°F21.9°C 69.7°F20.9°C 94% 0.1 mph WSW0.2 kmh WSW 1.0 mph1.6 kmh 29.75 in1007.5 mb - 0.03 in0.8 mm 0.23 in5.8 mm
03:45 PM 71.3°F21.8°C 69.8°F21.0°C 95% 0.6 mph WSW1.0 kmh WSW 1.0 mph1.6 kmh 29.75 in1007.5 mb - 0.03 in0.8 mm 0.26 in6.6 mm
04:00 PM 71.6°F22.0°C 70.4°F21.3°C 96% 0.1 mph NNE0.2 kmh NNE -- 29.75 in1007.5 mb - 0.03 in0.8 mm 0.29 in7.4 mm
04:15 PM 72.1°F22.3°C 70.9°F21.6°C 96% Calm Calm -- 29.74 in1007.1 mb - 0.03 in0.8 mm 0.31 in7.9 mm
04:30 PM 72.0°F22.2°C 70.8°F21.6°C 96% Calm Calm -- 29.74 in1007.1 mb - 0.02 in0.5 mm 0.33 in8.4 mm
04:45 PM 72.2°F22.3°C 71.0°F21.7°C 96% Calm Calm -- 29.74 in1007.1 mb - 0.02 in0.5 mm 0.35 in8.9 mm
05:00 PM 72.2°F22.3°C 71.0°F21.7°C 96% Calm Calm -- 29.75 in1007.5 mb - 0.02 in0.5 mm 0.37 in9.4 mm
05:15 PM 72.4°F22.4°C 71.5°F21.9°C 97% Calm Calm -- 29.74 in1007.1 mb - 0.02 in0.5 mm 0.39 in9.9 mm
05:30 PM 72.6°F22.6°C 71.4°F21.9°C 96% Calm Calm -- 29.74 in1007.1 mb - 0.01 in0.3 mm 0.40 in10.2 mm
05:45 PM 72.6°F22.6°C 71.7°F22.1°C 97% Calm Calm -- 29.75 in1007.5 mb - 0.02 in0.5 mm 0.42 in10.7 mm
06:00 PM 72.7°F22.6°C 71.5°F21.9°C 96% 0.5 mph WSW0.8 kmh WSW 2.0 mph3.2 kmh 29.75 in1007.5 mb - 0.01 in0.3 mm 0.43 in10.9 mm
06:15 PM 72.8°F22.7°C 71.6°F22.0°C 96% Calm Calm -- 29.75 in1007.5 mb - 0.01 in0.3 mm 0.44 in11.2 mm
06:30 PM 72.5°F22.5°C 71.3°F21.8°C 96% Calm Calm -- 29.76 in1007.8 mb - 0.01 in0.3 mm 0.45 in11.4 mm
06:45 PM 72.2°F22.3°C 71.0°F21.7°C 96% Calm Calm -- 29.76 in1007.8 mb - 0.01 in0.3 mm 0.46 in11.7 mm
07:00 PM 71.8°F22.1°C 70.6°F21.4°C 96% Calm Calm -- 29.76 in1007.8 mb - 0.01 in0.3 mm 0.47 in11.9 mm
07:15 PM 71.4°F21.9°C 70.2°F21.2°C 96% Calm Calm -- 29.76 in1007.8 mb - 0.01 in0.3 mm 0.48 in12.2 mm
07:30 PM 70.9°F21.6°C 69.7°F20.9°C 96% Calm Calm -- 29.76 in1007.8 mb - 0.00 in0.0 mm 0.48 in12.2 mm
07:45 PM 70.4°F21.3°C 69.2°F20.7°C 96% Calm Calm -- 29.77 in1008.1 mb - 0.01 in0.3 mm 0.49 in12.4 mm
08:00 PM 70.0°F21.1°C 68.8°F20.4°C 96% Calm Calm -- 29.77 in1008.1 mb - 0.01 in0.3 mm 0.50 in12.7 mm
08:15 PM 69.6°F20.9°C 68.4°F20.2°C 96% Calm Calm -- 29.77 in1008.1 mb - 0.00 in0.0 mm 0.50 in12.7 mm
08:30 PM 69.2°F20.7°C 68.0°F20.0°C 96% Calm Calm -- 29.77 in1008.1 mb - 0.00 in0.0 mm 0.50 in12.7 mm
08:45 PM 68.8°F20.4°C 67.6°F19.8°C 96% Calm Calm -- 29.77 in1008.1 mb - 0.01 in0.3 mm 0.51 in13.0 mm
09:00 PM 68.4°F20.2°C 67.2°F19.6°C 96% Calm Calm -- 29.77 in1008.1 mb - 0.00 in0.0 mm 0.51 in13.0 mm
09:15 PM 68.1°F20.1°C 66.9°F19.4°C 96% Calm Calm -- 29.77 in1008.1 mb - 0.00 in0.0 mm 0.51 in13.0 mm
09:30 PM 68.1°F20.1°C 66.9°F19.4°C 96% Calm Calm -- 29.77 in1008.1 mb - 0.00 in0.0 mm 0.51 in13.0 mm
09:45 PM 68.0°F20.0°C 66.8°F19.3°C 96% Calm Calm -- 29.77 in1008.1 mb - 0.00 in0.0 mm 0.51 in13.0 mm
10:00 PM 67.8°F19.9°C 66.9°F19.4°C 97% Calm Calm -- 29.78 in1008.5 mb - 0.00 in0.0 mm 0.51 in13.0 mm
10:15 PM 67.5°F19.7°C 66.3°F19.1°C 96% Calm Calm -- 29.77 in1008.1 mb - 0.00 in0.0 mm 0.51 in13.0 mm
10:30 PM 67.2°F19.6°C 66.3°F19.1°C 97% Calm Calm -- 29.78 in1008.5 mb - 0.00 in0.0 mm 0.51 in13.0 mm
10:45 PM 67.0°F19.4°C 66.1°F18.9°C 97% Calm Calm -- 29.77 in1008.1 mb - 0.00 in0.0 mm 0.51 in13.0 mm
11:00 PM 66.7°F19.3°C 65.5°F18.6°C 96% Calm Calm -- 29.77 in1008.1 mb - 0.00 in0.0 mm 0.51 in13.0 mm
11:15 PM 66.3°F19.1°C 65.5°F18.6°C 97% Calm Calm -- 29.77 in1008.1 mb - 0.00 in0.0 mm 0.51 in13.0 mm
11:30 PM 66.3°F19.1°C 65.4°F18.6°C 97% Calm Calm -- 29.77 in1008.1 mb - 0.00 in0.0 mm 0.51 in13.0 mm
11:45 PM 66.3°F19.1°C 65.4°F18.6°C 97% Calm Calm -- 29.77 in1008.1 mb - 0.00 in0.0 mm 0.51 in13.0 mm